sensor_id;sensor_type;location;lat;lon;timestamp;pressure;altitude;pressure_sealevel;temperature;humidity
30636;BME280;17400;52.392;9.750;2023-02-15T00:02:04;102352.75;;;5.33;100.00
30636;BME280;17400;52.392;9.750;2023-02-15T00:04:32;102350.69;;;5.37;100.00
30636;BME280;17400;52.392;9.750;2023-02-15T00:07:18;102352.53;;;5.36;100.00
30636;BME280;17400;52.392;9.750;2023-02-15T00:09:46;102351.06;;;5.43;100.00
30636;BME280;17400;52.392;9.750;2023-02-15T00:12:14;102345.94;;;5.40;100.00
30636;BME280;17400;52.392;9.750;2023-02-15T00:14:42;102352.78;;;5.44;100.00
30636;BME280;17400;52.392;9.750;2023-02-15T00:17:10;102339.97;;;5.48;100.00
30636;BME280;17400;52.392;9.750;2023-02-15T00:19:38;102336.41;;;5.47;100.00
30636;BME280;17400;52.392;9.750;2023-02-15T00:22:06;102334.72;;;5.46;100.00
30636;BME280;17400;52.392;9.750;2023-02-15T00:24:35;102332.38;;;5.53;100.00
30636;BME280;17400;52.392;9.750;2023-02-15T00:27:03;102326.28;;;5.51;100.00
30636;BME280;17400;52.392;9.750;2023-02-15T00:29:31;102320.66;;;5.43;100.00
30636;BME280;17400;52.392;9.750;2023-02-15T00:31:58;102310.78;;;5.32;100.00
30636;BME280;17400;52.392;9.750;2023-02-15T00:34:27;102318.38;;;5.27;100.00
30636;BME280;17400;52.392;9.750;2023-02-15T00:36:55;102310.66;;;5.22;100.00
30636;BME280;17400;52.392;9.750;2023-02-15T00:39:23;102301.63;;;5.23;100.00
30636;BME280;17400;52.392;9.750;2023-02-15T00:41:53;102308.34;;;5.29;100.00
30636;BME280;17400;52.392;9.750;2023-02-15T00:44:20;102307.97;;;5.33;100.00
30636;BME280;17400;52.392;9.750;2023-02-15T00:46:48;102313.84;;;5.39;100.00
30636;BME280;17400;52.392;9.750;2023-02-15T00:49:15;102307.94;;;5.45;100.00
30636;BME280;17400;52.392;9.750;2023-02-15T00:51:43;102312.97;;;5.49;100.00
30636;BME280;17400;52.392;9.750;2023-02-15T00:54:11;102307.25;;;5.43;100.00
30636;BME280;17400;52.392;9.750;2023-02-15T00:56:38;102307.25;;;5.43;100.00
30636;BME280;17400;52.392;9.750;2023-02-15T00:59:08;102302.72;;;5.43;100.00
30636;BME280;17400;52.392;9.750;2023-02-15T01:01:35;102298.56;;;5.39;100.00
30636;BME280;17400;52.392;9.750;2023-02-15T01:04:03;102300.75;;;5.34;100.00
30636;BME280;17400;52.392;9.750;2023-02-15T01:06:31;102302.22;;;5.38;100.00
30636;BME280;17400;52.392;9.750;2023-02-15T01:08:59;102305.41;;;5.43;100.00
30636;BME280;17400;52.392;9.750;2023-02-15T01:11:26;102296.63;;;5.41;100.00
30636;BME280;17400;52.392;9.750;2023-02-15T01:13:55;102302.84;;;5.42;100.00
30636;BME280;17400;52.392;9.750;2023-02-15T01:16:26;102299.78;;;5.46;100.00
30636;BME280;17400;52.392;9.750;2023-02-15T01:18:55;102297.81;;;5.48;100.00
30636;BME280;17400;52.392;9.750;2023-02-15T01:21:24;102296.38;;;5.44;100.00
30636;BME280;17400;52.392;9.750;2023-02-15T01:23:52;102291.00;;;5.44;100.00
30636;BME280;17400;52.392;9.750;2023-02-15T01:26:19;102289.53;;;5.40;100.00
30636;BME280;17400;52.392;9.750;2023-02-15T01:28:47;102293.31;;;5.38;100.00
30636;BME280;17400;52.392;9.750;2023-02-15T01:31:16;102285.88;;;5.41;100.00
30636;BME280;17400;52.392;9.750;2023-02-15T01:33:47;102278.19;;;5.37;100.00
30636;BME280;17400;52.392;9.750;2023-02-15T01:36:15;102291.75;;;5.35;100.00
30636;BME280;17400;52.392;9.750;2023-02-15T01:38:43;102282.94;;;5.33;100.00
30636;BME280;17400;52.392;9.750;2023-02-15T01:41:11;102291.88;;;5.33;100.00
30636;BME280;17400;52.392;9.750;2023-02-15T01:43:52;102287.59;;;5.31;100.00
30636;BME280;17400;52.392;9.750;2023-02-15T01:46:24;102279.28;;;5.34;100.00
30636;BME280;17400;52.392;9.750;2023-02-15T01:49:00;102280.03;;;5.36;100.00
30636;BME280;17400;52.392;9.750;2023-02-15T01:51:31;102281.75;;;5.37;100.00
30636;BME280;17400;52.392;9.750;2023-02-15T01:54:03;102281.25;;;5.32;100.00
30636;BME280;17400;52.392;9.750;2023-02-15T01:56:35;102273.56;;;5.27;100.00
30636;BME280;17400;52.392;9.750;2023-02-15T01:59:06;102271.25;;;5.23;100.00
30636;BME280;17400;52.392;9.750;2023-02-15T02:01:37;102275.13;;;5.18;100.00
30636;BME280;17400;52.392;9.750;2023-02-15T02:04:12;102265.53;;;5.16;100.00
30636;BME280;17400;52.392;9.750;2023-02-15T02:06:41;102263.06;;;5.13;100.00
30636;BME280;17400;52.392;9.750;2023-02-15T02:09:08;102258.09;;;5.08;100.00
30636;BME280;17400;52.392;9.750;2023-02-15T02:11:38;102256.25;;;5.09;100.00
30636;BME280;17400;52.392;9.750;2023-02-15T02:14:06;102256.25;;;5.09;100.00
30636;BME280;17400;52.392;9.750;2023-02-15T02:16:40;102245.63;;;5.07;100.00
30636;BME280;17400;52.392;9.750;2023-02-15T02:22:33;102242.81;;;5.09;100.00
30636;BME280;17400;52.392;9.750;2023-02-15T02:25:26;102238.56;;;5.06;100.00
30636;BME280;17400;52.392;9.750;2023-02-15T02:28:07;102239.53;;;5.05;100.00
30636;BME280;17400;52.392;9.750;2023-02-15T02:31:11;102236.63;;;5.08;100.00
30636;BME280;17400;52.392;9.750;2023-02-15T02:33:52;102230.00;;;5.01;100.00
30636;BME280;17400;52.392;9.750;2023-02-15T02:36:25;102231.84;;;5.00;100.00
30636;BME280;17400;52.392;9.750;2023-02-15T02:39:07;102232.94;;;4.98;100.00
30636;BME280;17400;52.392;9.750;2023-02-15T02:41:44;102225.63;;;4.89;100.00
30636;BME280;17400;52.392;9.750;2023-02-15T02:44:19;102220.16;;;4.90;100.00
30636;BME280;17400;52.392;9.750;2023-02-15T02:46:52;102220.00;;;4.92;100.00
30636;BME280;17400;52.392;9.750;2023-02-15T02:49:32;102217.47;;;4.90;100.00
30636;BME280;17400;52.392;9.750;2023-02-15T02:52:01;102218.56;;;4.88;100.00
30636;BME280;17400;52.392;9.750;2023-02-15T02:54:29;102218.56;;;4.88;100.00
30636;BME280;17400;52.392;9.750;2023-02-15T02:57:00;102216.84;;;4.87;100.00
30636;BME280;17400;52.392;9.750;2023-02-15T02:59:31;102215.16;;;4.86;100.00
30636;BME280;17400;52.392;9.750;2023-02-15T03:02:02;102216.00;;;4.86;100.00
30636;BME280;17400;52.392;9.750;2023-02-15T03:04:38;102202.47;;;4.88;100.00
30636;BME280;17400;52.392;9.750;2023-02-15T03:07:12;102203.28;;;4.88;100.00
30636;BME280;17400;52.392;9.750;2023-02-15T03:09:45;102201.63;;;4.87;100.00
30636;BME280;17400;52.392;9.750;2023-02-15T03:12:19;102201.34;;;4.90;100.00
30636;BME280;17400;52.392;9.750;2023-02-15T03:14:50;102198.81;;;4.89;100.00
30636;BME280;17400;52.392;9.750;2023-02-15T03:17:20;102190.63;;;4.90;100.00
30636;BME280;17400;52.392;9.750;2023-02-15T03:19:54;102192.34;;;4.91;100.00
30636;BME280;17400;52.392;9.750;2023-02-15T03:22:26;102197.56;;;4.93;100.00
30636;BME280;17400;52.392;9.750;2023-02-15T03:24:58;102184.50;;;4.88;100.00
30636;BME280;17400;52.392;9.750;2023-02-15T03:27:31;102182.44;;;4.92;100.00
30636;BME280;17400;52.392;9.750;2023-02-15T03:30:02;102180.50;;;4.94;100.00
30636;BME280;17400;52.392;9.750;2023-02-15T03:32:33;102172.69;;;4.91;100.00
30636;BME280;17400;52.392;9.750;2023-02-15T03:35:03;102181.59;;;4.91;100.00
30636;BME280;17400;52.392;9.750;2023-02-15T03:37:35;102179.75;;;4.92;100.00
30636;BME280;17400;52.392;9.750;2023-02-15T03:40:08;102184.66;;;4.98;100.00
30636;BME280;17400;52.392;9.750;2023-02-15T03:42:57;102177.69;;;4.95;100.00
30636;BME280;17400;52.392;9.750;2023-02-15T03:45:31;102174.88;;;4.97;100.00
30636;BME280;17400;52.392;9.750;2023-02-15T03:48:00;102173.16;;;4.96;100.00
30636;BME280;17400;52.392;9.750;2023-02-15T03:50:32;102179.53;;;4.95;100.00
30636;BME280;17400;52.392;9.750;2023-02-15T03:53:21;102183.91;;;4.96;100.00
30636;BME280;17400;52.392;9.750;2023-02-15T03:55:54;102182.22;;;4.95;100.00
30636;BME280;17400;52.392;9.750;2023-02-15T03:58:21;102184.03;;;4.94;100.00
30636;BME280;17400;52.392;9.750;2023-02-15T04:01:13;102179.41;;;4.96;100.00
30636;BME280;17400;52.392;9.750;2023-02-15T04:04:01;102189.16;;;4.97;100.00
30636;BME280;17400;52.392;9.750;2023-02-15T04:06:31;102186.72;;;4.94;100.00
30636;BME280;17400;52.392;9.750;2023-02-15T04:08:59;102183.31;;;4.92;100.00
30636;BME280;17400;52.392;9.750;2023-02-15T04:11:44;102177.47;;;4.87;100.00
30636;BME280;17400;52.392;9.750;2023-02-15T04:14:12;102173.06;;;4.86;100.00
30636;BME280;17400;52.392;9.750;2023-02-15T04:16:53;102172.31;;;4.84;100.00
30636;BME280;17400;52.392;9.750;2023-02-15T04:19:21;102167.69;;;4.86;100.00
30636;BME280;17400;52.392;9.750;2023-02-15T04:22:07;102159.66;;;4.86;100.00
30636;BME280;17400;52.392;9.750;2023-02-15T04:24:53;102166.47;;;4.90;100.00
30636;BME280;17400;52.392;9.750;2023-02-15T04:27:41;102166.59;;;4.89;100.00
30636;BME280;17400;52.392;9.750;2023-02-15T04:30:11;102171.00;;;4.90;100.00
30636;BME280;17400;52.392;9.750;2023-02-15T04:32:39;102158.56;;;4.89;100.00
30636;BME280;17400;52.392;9.750;2023-02-15T04:35:07;102163.03;;;4.88;100.00
30636;BME280;17400;52.392;9.750;2023-02-15T04:37:37;102161.50;;;4.86;100.00
30636;BME280;17400;52.392;9.750;2023-02-15T04:40:06;102169.03;;;4.92;100.00
30636;BME280;17400;52.392;9.750;2023-02-15T04:42:34;102165.00;;;4.97;100.00
30636;BME280;17400;52.392;9.750;2023-02-15T04:45:02;102157.19;;;5.06;100.00
30636;BME280;17400;52.392;9.750;2023-02-15T04:47:30;102156.22;;;5.07;100.00
30636;BME280;17400;52.392;9.750;2023-02-15T04:49:58;102153.63;;;5.05;100.00
30636;BME280;17400;52.392;9.750;2023-02-15T04:52:26;102148.25;;;5.05;100.00
30636;BME280;17400;52.392;9.750;2023-02-15T04:54:55;102146.06;;;5.10;100.00
30636;BME280;17400;52.392;9.750;2023-02-15T04:57:22;102139.97;;;5.08;100.00
30636;BME280;17400;52.392;9.750;2023-02-15T04:59:50;102138.88;;;5.11;100.00
30636;BME280;17400;52.392;9.750;2023-02-15T05:02:18;102144.47;;;5.08;100.00
30636;BME280;17400;52.392;9.750;2023-02-15T05:04:46;102142.19;;;5.03;100.00
30636;BME280;17400;52.392;9.750;2023-02-15T05:07:13;102137.03;;;5.00;100.00
30636;BME280;17400;52.392;9.750;2023-02-15T05:09:42;102137.03;;;5.00;100.00
30636;BME280;17400;52.392;9.750;2023-02-15T05:12:11;102143.91;;;5.04;100.00
30636;BME280;17400;52.392;9.750;2023-02-15T05:14:38;102140.72;;;4.99;100.00
30636;BME280;17400;52.392;9.750;2023-02-15T05:17:06;102143.16;;;5.02;100.00
30636;BME280;17400;52.392;9.750;2023-02-15T05:19:33;102146.31;;;5.07;100.00
30636;BME280;17400;52.392;9.750;2023-02-15T05:22:01;102139.97;;;5.08;100.00
30636;BME280;17400;52.392;9.750;2023-02-15T05:24:29;102144.72;;;5.05;100.00
30636;BME280;17400;52.392;9.750;2023-02-15T05:27:27;102142.41;;;5.00;100.00
30636;BME280;17400;52.392;9.750;2023-02-15T05:32:40;102136.69;;;4.93;100.00
30636;BME280;17400;52.392;9.750;2023-02-15T05:35:12;102136.59;;;4.95;100.00
30636;BME280;17400;52.392;9.750;2023-02-15T05:37:40;102129.75;;;4.91;100.00
30636;BME280;17400;52.392;9.750;2023-02-15T05:40:09;102127.47;;;4.75;100.00
30636;BME280;17400;52.392;9.750;2023-02-15T05:42:38;102135.41;;;4.76;100.00
30636;BME280;17400;52.392;9.750;2023-02-15T05:45:06;102117.13;;;4.70;100.00
30636;BME280;17400;52.392;9.750;2023-02-15T05:47:34;102113.19;;;4.63;100.00
30636;BME280;17400;52.392;9.750;2023-02-15T05:50:02;102114.56;;;4.57;100.00
30636;BME280;17400;52.392;9.750;2023-02-15T05:52:29;102114.81;;;4.43;100.00
30636;BME280;17400;52.392;9.750;2023-02-15T05:54:57;102120.06;;;4.33;100.00
30636;BME280;17400;52.392;9.750;2023-02-15T05:57:26;102118.47;;;4.30;100.00
30636;BME280;17400;52.392;9.750;2023-02-15T05:59:56;102113.72;;;4.34;100.00
30636;BME280;17400;52.392;9.750;2023-02-15T06:02:23;102106.50;;;4.23;100.00
30636;BME280;17400;52.392;9.750;2023-02-15T06:04:51;102112.75;;;4.24;100.00
30636;BME280;17400;52.392;9.750;2023-02-15T06:07:18;102116.38;;;4.23;100.00
30636;BME280;17400;52.392;9.750;2023-02-15T06:09:46;102117.97;;;4.25;100.00
30636;BME280;17400;52.392;9.750;2023-02-15T06:12:14;102116.66;;;4.20;100.00
30636;BME280;17400;52.392;9.750;2023-02-15T06:14:42;102116.38;;;4.23;100.00
30636;BME280;17400;52.392;9.750;2023-02-15T06:17:10;102119.44;;;4.18;100.00
30636;BME280;17400;52.392;9.750;2023-02-15T06:19:38;102129.19;;;4.08;100.00
30636;BME280;17400;52.392;9.750;2023-02-15T06:22:06;102128.31;;;4.07;100.00
30636;BME280;17400;52.392;9.750;2023-02-15T06:24:34;102130.97;;;4.07;100.00
30636;BME280;17400;52.392;9.750;2023-02-15T06:27:02;102133.53;;;4.09;100.00
30636;BME280;17400;52.392;9.750;2023-02-15T06:29:30;102127.97;;;4.12;100.00
30636;BME280;17400;52.392;9.750;2023-02-15T06:31:57;102115.19;;;4.15;100.00
30636;BME280;17400;52.392;9.750;2023-02-15T06:34:27;102119.53;;;4.05;100.00
30636;BME280;17400;52.392;9.750;2023-02-15T06:36:54;102110.03;;;4.12;100.00
30636;BME280;17400;52.392;9.750;2023-02-15T06:39:22;102106.53;;;4.12;100.00
30636;BME280;17400;52.392;9.750;2023-02-15T06:41:49;102115.28;;;4.03;100.00
30636;BME280;17400;52.392;9.750;2023-02-15T06:44:17;102112.72;;;4.01;100.00
30636;BME280;17400;52.392;9.750;2023-02-15T06:46:45;102112.47;;;4.04;100.00
30636;BME280;17400;52.392;9.750;2023-02-15T06:49:12;102101.50;;;4.07;100.00
30636;BME280;17400;52.392;9.750;2023-02-15T06:51:41;102112.72;;;4.01;100.00
30636;BME280;17400;52.392;9.750;2023-02-15T06:54:09;102108.47;;;3.98;100.00
30636;BME280;17400;52.392;9.750;2023-02-15T06:56:37;102118.09;;;4.01;100.00
30636;BME280;17400;52.392;9.750;2023-02-15T06:59:05;102117.97;;;4.03;100.00
30636;BME280;17400;52.392;9.750;2023-02-15T07:01:32;102117.97;;;4.03;100.00
30636;BME280;17400;52.392;9.750;2023-02-15T07:04:00;102116.75;;;4.07;100.00
30636;BME280;17400;52.392;9.750;2023-02-15T07:06:30;102111.72;;;4.02;100.00
30636;BME280;17400;52.392;9.750;2023-02-15T07:08:59;102120.63;;;4.03;100.00
30636;BME280;17400;52.392;9.750;2023-02-15T07:11:27;102116.25;;;4.02;100.00
30636;BME280;17400;52.392;9.750;2023-02-15T07:14:12;102112.72;;;4.01;100.00
30636;BME280;17400;52.392;9.750;2023-02-15T07:16:40;102111.72;;;4.02;100.00
30636;BME280;17400;52.392;9.750;2023-02-15T07:19:07;102109.03;;;4.02;100.00
30636;BME280;17400;52.392;9.750;2023-02-15T07:21:35;102116.63;;;3.97;100.00
30636;BME280;17400;52.392;9.750;2023-02-15T07:24:05;102112.22;;;3.96;100.00
30636;BME280;17400;52.392;9.750;2023-02-15T07:26:33;102119.28;;;4.08;100.00
30636;BME280;17400;52.392;9.750;2023-02-15T07:29:00;102118.59;;;4.06;100.00
30636;BME280;17400;52.392;9.750;2023-02-15T07:31:28;102118.47;;;4.08;100.00
30636;BME280;17400;52.392;9.750;2023-02-15T07:33:56;102126.38;;;4.09;100.00
30636;BME280;17400;52.392;9.750;2023-02-15T07:36:23;102117.47;;;4.09;100.00
30636;BME280;17400;52.392;9.750;2023-02-15T07:38:51;102114.19;;;4.16;100.00
30636;BME280;17400;52.392;9.750;2023-02-15T07:41:20;102123.09;;;4.17;100.00
30636;BME280;17400;52.392;9.750;2023-02-15T07:43:47;102112.13;;;4.20;100.00
30636;BME280;17400;52.392;9.750;2023-02-15T07:46:16;102120.03;;;4.22;100.00
30636;BME280;17400;52.392;9.750;2023-02-15T07:48:44;102108.97;;;4.26;100.00
30636;BME280;17400;52.392;9.750;2023-02-15T07:51:12;102110.19;;;4.22;100.00
30636;BME280;17400;52.392;9.750;2023-02-15T07:53:41;102107.59;;;4.21;100.00
30636;BME280;17400;52.392;9.750;2023-02-15T07:56:10;102107.00;;;4.28;100.00
30636;BME280;17400;52.392;9.750;2023-02-15T07:58:39;102106.75;;;4.20;100.00
30636;BME280;17400;52.392;9.750;2023-02-15T08:01:20;102108.22;;;4.24;100.00
30636;BME280;17400;52.392;9.750;2023-02-15T08:03:49;102098.72;;;4.31;100.00
30636;BME280;17400;52.392;9.750;2023-02-15T08:06:17;102095.41;;;4.39;100.00
30636;BME280;17400;52.392;9.750;2023-02-15T08:08:45;102091.53;;;4.43;100.00
30636;BME280;17400;52.392;9.750;2023-02-15T08:11:18;102086.63;;;4.48;100.00
30636;BME280;17400;52.392;9.750;2023-02-15T08:14:03;102080.91;;;4.53;100.00
30636;BME280;17400;52.392;9.750;2023-02-15T08:16:34;102079.72;;;4.46;100.00
30636;BME280;17400;52.392;9.750;2023-02-15T08:19:04;102080.91;;;4.53;100.00
30636;BME280;17400;52.392;9.750;2023-02-15T08:21:33;102074.44;;;4.56;100.00
30636;BME280;17400;52.392;9.750;2023-02-15T08:24:02;102075.66;;;4.63;100.00
30636;BME280;17400;52.392;9.750;2023-02-15T08:26:33;102076.88;;;4.70;100.00
30636;BME280;17400;52.392;9.750;2023-02-15T08:29:02;102075.25;;;4.79;100.00
30636;BME280;17400;52.392;9.750;2023-02-15T08:31:30;102074.75;;;4.85;100.00
30636;BME280;17400;52.392;9.750;2023-02-15T08:33:59;102064.16;;;4.83;100.00
30636;BME280;17400;52.392;9.750;2023-02-15T08:36:28;102053.41;;;4.83;100.00
30636;BME280;17400;52.392;9.750;2023-02-15T08:38:58;102060.03;;;4.79;100.00
30636;BME280;17400;52.392;9.750;2023-02-15T08:41:27;102061.44;;;4.95;100.00
30636;BME280;17400;52.392;9.750;2023-02-15T08:43:57;102058.44;;;5.09;100.00
30636;BME280;17400;52.392;9.750;2023-02-15T08:46:30;102055.84;;;5.19;100.00
30636;BME280;17400;52.392;9.750;2023-02-15T08:48:58;102056.69;;;5.20;100.00
30636;BME280;17400;52.392;9.750;2023-02-15T08:51:28;102063.81;;;5.09;100.00
30636;BME280;17400;52.392;9.750;2023-02-15T08:53:57;102055.00;;;5.18;100.00
30636;BME280;17400;52.392;9.750;2023-02-15T08:56:27;102062.41;;;5.26;100.00
30636;BME280;17400;52.392;9.750;2023-02-15T08:58:55;102059.31;;;5.10;100.00
30636;BME280;17400;52.392;9.750;2023-02-15T09:01:27;102053.19;;;5.19;100.00
30636;BME280;17400;52.392;9.750;2023-02-15T09:03:57;102045.91;;;5.31;100.00
30636;BME280;17400;52.392;9.750;2023-02-15T09:06:26;102048.88;;;5.28;100.00
30636;BME280;17400;52.392;9.750;2023-02-15T09:08:55;102047.38;;;5.35;100.00
30636;BME280;17400;52.392;9.750;2023-02-15T09:11:25;102058.09;;;5.35;100.00
30636;BME280;17400;52.392;9.750;2023-02-15T09:13:54;102055.69;;;5.32;100.00
30636;BME280;17400;52.392;9.750;2023-02-15T09:16:24;102056.38;;;5.13;100.00
30636;BME280;17400;52.392;9.750;2023-02-15T09:18:54;102059.91;;;5.13;100.00
30636;BME280;17400;52.392;9.750;2023-02-15T09:21:25;102056.66;;;5.31;100.00
30636;BME280;17400;52.392;9.750;2023-02-15T09:23:56;102055.00;;;5.18;100.00
30636;BME280;17400;52.392;9.750;2023-02-15T09:26:24;102057.59;;;5.41;100.00
30636;BME280;17400;52.392;9.750;2023-02-15T09:28:54;102044.69;;;5.56;100.00
30636;BME280;17400;52.392;9.750;2023-02-15T09:31:24;102048.81;;;5.60;100.00
30636;BME280;17400;52.392;9.750;2023-02-15T09:33:54;102051.34;;;5.62;100.00
30636;BME280;17400;52.392;9.750;2023-02-15T09:36:23;102050.19;;;5.76;100.00
30636;BME280;17400;52.392;9.750;2023-02-15T09:38:55;102046.72;;;5.64;100.00
30636;BME280;17400;52.392;9.750;2023-02-15T09:41:44;102040.22;;;5.88;100.00
30636;BME280;17400;52.392;9.750;2023-02-15T09:44:25;102048.41;;;5.86;100.00
30636;BME280;17400;52.392;9.750;2023-02-15T09:47:08;102046.75;;;5.95;100.00
30636;BME280;17400;52.392;9.750;2023-02-15T09:49:48;102051.78;;;5.88;100.00
30636;BME280;17400;52.392;9.750;2023-02-15T09:52:30;102051.31;;;5.73;100.00
30636;BME280;17400;52.392;9.750;2023-02-15T09:55:21;102044.66;;;5.77;100.00
30636;BME280;17400;52.392;9.750;2023-02-15T09:58:00;102043.88;;;5.87;100.00
30636;BME280;17400;52.392;9.750;2023-02-15T10:00:40;102042.63;;;5.91;100.00
30636;BME280;17400;52.392;9.750;2023-02-15T10:03:25;102044.47;;;5.90;100.00
30636;BME280;17400;52.392;9.750;2023-02-15T10:06:11;102041.97;;;5.98;100.00
30636;BME280;17400;52.392;9.750;2023-02-15T10:08:53;102047.25;;;6.10;100.00
30636;BME280;17400;52.392;9.750;2023-02-15T10:11:25;102050.94;;;6.09;100.00
30636;BME280;17400;52.392;9.750;2023-02-15T10:14:24;102046.50;;;6.29;100.00
30636;BME280;17400;52.392;9.750;2023-02-15T10:17:14;102039.72;;;6.34;100.00
30636;BME280;17400;52.392;9.750;2023-02-15T10:19:55;102038.97;;;6.23;100.00
30636;BME280;17400;52.392;9.750;2023-02-15T10:22:37;102042.47;;;5.92;100.00
30636;BME280;17400;52.392;9.750;2023-02-15T10:25:22;102035.84;;;5.96;100.00
30636;BME280;17400;52.392;9.750;2023-02-15T10:28:03;102039.41;;;5.97;100.00
30636;BME280;17400;52.392;9.750;2023-02-15T10:30:41;102031.09;;;6.00;100.00
30636;BME280;17400;52.392;9.750;2023-02-15T10:33:20;102028.72;;;6.07;100.00
30636;BME280;17400;52.392;9.750;2023-02-15T10:35:59;102030.59;;;6.16;100.00
30636;BME280;17400;52.392;9.750;2023-02-15T10:38:38;102031.88;;;6.22;100.00
30636;BME280;17400;52.392;9.750;2023-02-15T10:41:22;102032.22;;;6.38;100.00
30636;BME280;17400;52.392;9.750;2023-02-15T10:44:10;102035.06;;;6.46;100.00
30636;BME280;17400;52.392;9.750;2023-02-15T10:46:59;102036.66;;;6.59;100.00
30636;BME280;17400;52.392;9.750;2023-02-15T10:49:42;102027.34;;;6.63;100.00
30636;BME280;17400;52.392;9.750;2023-02-15T10:52:25;102022.94;;;6.62;100.00
30636;BME280;17400;52.392;9.750;2023-02-15T10:55:04;102030.72;;;6.65;100.00
30636;BME280;17400;52.392;9.750;2023-02-15T10:57:42;102026.78;;;6.69;100.00
30636;BME280;17400;52.392;9.750;2023-02-15T11:00:17;102023.38;;;6.67;100.00
30636;BME280;17400;52.392;9.750;2023-02-15T11:03:11;102016.97;;;6.68;100.00
30636;BME280;17400;52.392;9.750;2023-02-15T11:05:50;102019.81;;;6.66;100.00
30636;BME280;17400;52.392;9.750;2023-02-15T11:08:24;102015.56;;;6.64;100.00
30636;BME280;17400;52.392;9.750;2023-02-15T11:10:58;102015.16;;;6.69;100.00
30636;BME280;17400;52.392;9.750;2023-02-15T11:13:34;102012.75;;;6.75;100.00
30636;BME280;17400;52.392;9.750;2023-02-15T11:16:06;102010.22;;;6.74;100.00
30636;BME280;17400;52.392;9.750;2023-02-15T11:18:41;102002.28;;;6.72;100.00
30636;BME280;17400;52.392;9.750;2023-02-15T11:21:13;101998.75;;;6.81;100.00
30636;BME280;17400;52.392;9.750;2023-02-15T11:23:46;102000.31;;;6.84;100.00
30636;BME280;17400;52.392;9.750;2023-02-15T11:26:19;102005.81;;;6.82;100.00
30636;BME280;17400;52.392;9.750;2023-02-15T11:28:51;102007.38;;;6.75;100.00
30636;BME280;17400;52.392;9.750;2023-02-15T11:31:23;102000.72;;;6.79;100.00
30636;BME280;17400;52.392;9.750;2023-02-15T11:33:57;101996.06;;;6.81;100.00
30636;BME280;17400;52.392;9.750;2023-02-15T11:36:28;101993.50;;;6.90;100.00
30636;BME280;17400;52.392;9.750;2023-02-15T11:39:04;101999.47;;;6.93;100.00
30636;BME280;17400;52.392;9.750;2023-02-15T11:41:39;101994.19;;;6.92;100.00
30636;BME280;17400;52.392;9.750;2023-02-15T11:44:13;101989.53;;;6.94;100.00
30636;BME280;17400;52.392;9.750;2023-02-15T11:46:42;101981.03;;;6.98;100.00
30636;BME280;17400;52.392;9.750;2023-02-15T11:49:21;101977.91;;;7.03;100.00
30636;BME280;17400;52.392;9.750;2023-02-15T11:51:49;101978.50;;;7.07;100.00
30636;BME280;17400;52.392;9.750;2023-02-15T11:54:19;101970.81;;;7.02;100.00
30636;BME280;17400;52.392;9.750;2023-02-15T11:56:50;101975.06;;;7.05;100.00
30636;BME280;17400;52.392;9.750;2023-02-15T11:59:21;101981.72;;;7.10;100.00
30636;BME280;17400;52.392;9.750;2023-02-15T12:01:52;101976.06;;;7.13;100.00
30636;BME280;17400;52.392;9.750;2023-02-15T12:04:23;101971.38;;;7.15;100.00
30636;BME280;17400;52.392;9.750;2023-02-15T12:06:54;101971.97;;;7.09;100.00
30636;BME280;17400;52.392;9.750;2023-02-15T12:09:32;101963.59;;;7.12;100.00
30636;BME280;17400;52.392;9.750;2023-02-15T12:12:25;101959.75;;;7.25;100.00
30636;BME280;17400;52.392;9.750;2023-02-15T12:14:54;101957.72;;;7.37;100.00
30636;BME280;17400;52.392;9.750;2023-02-15T12:17:23;101954.44;;;7.53;100.00
30636;BME280;17400;52.392;9.750;2023-02-15T12:19:52;101954.38;;;7.72;100.00
30636;BME280;17400;52.392;9.750;2023-02-15T12:22:24;101959.69;;;7.92;100.00
30636;BME280;17400;52.392;9.750;2023-02-15T12:24:55;101954.94;;;8.04;98.84
30636;BME280;17400;52.392;9.750;2023-02-15T12:27:29;101953.44;;;8.19;97.27
30636;BME280;17400;52.392;9.750;2023-02-15T12:30:00;101955.09;;;8.30;95.74
30636;BME280;17400;52.392;9.750;2023-02-15T12:32:33;101953.13;;;8.50;94.60
30636;BME280;17400;52.392;9.750;2023-02-15T12:35:07;101941.66;;;8.66;92.58
30636;BME280;17400;52.392;9.750;2023-02-15T12:37:35;101940.56;;;8.77;94.88
30636;BME280;17400;52.392;9.750;2023-02-15T12:40:19;101940.16;;;8.90;92.35
30636;BME280;17400;52.392;9.750;2023-02-15T12:42:49;101940.59;;;9.03;90.97
30636;BME280;17400;52.392;9.750;2023-02-15T12:45:25;101925.00;;;9.15;91.49
30636;BME280;17400;52.392;9.750;2023-02-15T12:48:15;101929.28;;;9.26;88.69
30636;BME280;17400;52.392;9.750;2023-02-15T12:50:44;101922.94;;;9.35;88.16
30636;BME280;17400;52.392;9.750;2023-02-15T12:53:15;101926.53;;;9.44;88.36
30636;BME280;17400;52.392;9.750;2023-02-15T12:55:54;101931.69;;;9.55;86.33
30636;BME280;17400;52.392;9.750;2023-02-15T12:58:25;101930.84;;;9.63;84.68
30636;BME280;17400;52.392;9.750;2023-02-15T13:01:12;101920.63;;;9.75;83.71
30636;BME280;17400;52.392;9.750;2023-02-15T13:03:58;101918.63;;;9.85;83.31
30636;BME280;17400;52.392;9.750;2023-02-15T13:06:27;101919.53;;;9.94;80.69
30636;BME280;17400;52.392;9.750;2023-02-15T13:09:05;101911.59;;;10.00;85.50
30636;BME280;17400;52.392;9.750;2023-02-15T13:11:33;101918.38;;;10.05;81.41
30636;BME280;17400;52.392;9.750;2023-02-15T13:14:16;101906.75;;;10.21;79.82
30636;BME280;17400;52.392;9.750;2023-02-15T13:16:47;101910.47;;;10.20;82.31
30636;BME280;17400;52.392;9.750;2023-02-15T13:19:18;101906.06;;;10.18;80.26
30636;BME280;17400;52.392;9.750;2023-02-15T13:21:50;101893.25;;;10.37;76.70
30636;BME280;17400;52.392;9.750;2023-02-15T13:24:22;101892.59;;;10.52;78.19